createdAt,value
2022-09-12T00:01:18.211Z,99907.75
2022-09-12T00:03:45.485Z,99908.63
2022-09-12T00:06:24.517Z,99906.94
2022-09-12T00:08:54.187Z,99902.63
2022-09-12T00:11:21.604Z,99903.47
2022-09-12T00:13:49.080Z,99912.16
2022-09-12T00:16:18.367Z,99898.28
2022-09-12T00:18:47.060Z,99906.97
2022-09-12T00:21:15.537Z,99907.00
2022-09-12T00:23:42.550Z,99906.16
2022-09-12T00:26:09.696Z,99907.88
2022-09-12T00:28:38.109Z,99908.69
2022-09-12T00:31:07.936Z,99906.97
2022-09-12T00:33:36.056Z,99902.69
2022-09-12T00:36:08.857Z,99905.28
2022-09-12T00:38:38.754Z,99894.81
2022-09-12T00:41:06.425Z,99900.00
2022-09-12T00:43:42.757Z,99903.50
2022-09-12T00:46:40.202Z,99900.03
2022-09-12T00:49:18.440Z,99900.88
2022-09-12T00:51:50.938Z,99902.63
2022-09-12T00:54:22.559Z,99896.63
2022-09-12T00:56:50.856Z,99893.13
2022-09-12T00:59:22.148Z,99894.88
2022-09-12T01:01:51.341Z,99897.47
2022-09-12T01:04:20.811Z,99899.19
2022-09-12T01:06:48.734Z,99900.91
2022-09-12T01:09:20.988Z,99909.63
2022-09-12T01:11:48.702Z,99908.75
2022-09-12T01:14:17.379Z,99906.16
2022-09-12T01:16:45.458Z,99909.63
2022-09-12T01:19:31.938Z,99907.03
2022-09-12T01:22:29.776Z,99898.41
2022-09-12T01:25:29.035Z,99901.06
2022-09-12T01:28:27.017Z,99893.28
2022-09-12T01:31:13.946Z,99897.69
2022-09-12T01:34:02.426Z,99908.13
2022-09-12T01:36:29.613Z,99904.66
2022-09-12T01:39:00.751Z,99904.72
2022-09-12T01:41:50.247Z,99909.88
2022-09-12T01:44:24.638Z,99911.59
2022-09-12T01:47:14.118Z,99916.75
2022-09-12T01:49:47.067Z,99915.00
2022-09-12T01:52:21.836Z,99908.94
2022-09-12T01:54:55.010Z,99911.53
2022-09-12T01:57:32.658Z,99911.53
2022-09-12T02:00:08.957Z,99911.53
2022-09-12T02:02:48.617Z,99914.16
2022-09-12T02:05:19.048Z,99917.66
2022-09-12T02:07:54.136Z,99911.59
2022-09-12T02:10:29.164Z,99908.97
2022-09-12T02:13:08.585Z,99912.41
2022-09-12T02:15:40.906Z,99909.78
2022-09-12T02:18:09.017Z,99909.81
2022-09-12T02:20:48.937Z,99902.03
2022-09-12T02:23:22.559Z,99908.97
2022-09-12T02:25:53.994Z,99910.69
2022-09-12T02:28:28.262Z,99909.81
2022-09-12T02:31:17.488Z,99912.44
2022-09-12T02:34:10.655Z,99910.75
2022-09-12T02:36:50.530Z,99914.22
2022-09-12T02:39:20.181Z,99913.38
2022-09-12T02:41:55.019Z,99912.59
2022-09-12T02:44:22.477Z,99909.94
2022-09-12T02:46:53.577Z,99912.59
2022-09-12T02:49:20.559Z,99913.47
2022-09-12T02:51:48.221Z,99909.16
2022-09-12T02:54:16.124Z,99916.94
2022-09-12T02:56:44.387Z,99916.94
2022-09-12T02:59:14.573Z,99916.13
2022-09-12T03:02:08.416Z,99910.06
2022-09-12T03:04:59.207Z,99909.19
2022-09-12T03:07:44.673Z,99917.81
2022-09-12T03:10:25.209Z,99907.44
2022-09-12T03:12:59.519Z,99903.97
2022-09-12T03:15:32.137Z,99922.13
2022-09-12T03:18:06.359Z,99918.66
2022-09-12T03:20:42.344Z,99923.84
2022-09-12T03:23:37.543Z,99921.25
2022-09-12T03:26:10.146Z,99925.59
2022-09-12T03:28:40.186Z,99923.84
2022-09-12T03:31:19.047Z,99929.91
2022-09-12T03:33:46.257Z,99929.88
2022-09-12T03:36:21.235Z,99937.69
2022-09-12T03:38:48.177Z,99937.69
2022-09-12T03:41:15.346Z,99937.69
2022-09-12T03:43:42.298Z,99942.88
2022-09-12T03:46:09.275Z,99939.41
2022-09-12T03:48:36.367Z,99942.88
2022-09-12T03:51:09.202Z,99941.19
2022-09-12T03:53:36.598Z,99938.56
2022-09-12T03:56:08.538Z,99937.75
2022-09-12T03:58:36.419Z,99943.78
2022-09-12T04:01:12.778Z,99941.19
2022-09-12T04:03:41.561Z,99940.34
2022-09-12T04:06:10.050Z,99937.78
2022-09-12T04:08:37.913Z,99939.53
2022-09-12T04:11:13.068Z,99953.41
2022-09-12T04:13:41.650Z,99947.31
2022-09-12T04:16:09.041Z,99940.41
2022-09-12T04:18:36.334Z,99944.72
2022-09-12T04:21:15.184Z,99946.41
2022-09-12T04:23:42.561Z,99950.72
2022-09-12T04:26:10.218Z,99942.06
2022-09-12T04:28:38.349Z,99947.25
2022-09-12T04:31:24.026Z,99950.72
2022-09-12T04:33:56.047Z,99953.25
2022-09-12T04:36:23.807Z,99959.19
2022-09-12T04:38:51.631Z,99951.28
2022-09-12T04:41:22.307Z,99957.94
2022-09-12T04:43:53.457Z,99962.66
2022-09-12T04:46:21.215Z,99955.41
2022-09-12T04:48:51.349Z,99953.09
2022-09-12T04:51:26.021Z,99962.81
2022-09-12T04:53:54.589Z,99966.28
2022-09-12T04:56:22.431Z,99959.53
2022-09-12T04:58:49.904Z,99956.09
2022-09-12T05:01:21.744Z,99953.38
2022-09-12T05:03:49.741Z,99960.00
2022-09-12T05:06:19.268Z,99960.44
2022-09-12T05:08:47.025Z,99959.28
2022-09-12T05:11:17.604Z,99958.34
2022-09-12T05:13:46.820Z,99962.56
2022-09-12T05:16:15.733Z,99963.69
2022-09-12T05:18:44.403Z,99961.25
2022-09-12T05:21:13.226Z,99959.63
2022-09-12T05:23:40.384Z,99961.47
2022-09-12T05:26:08.778Z,99969.22
2022-09-12T05:28:37.627Z,99957.81
2022-09-12T05:31:11.452Z,99967.97
2022-09-12T05:33:41.526Z,99961.59
2022-09-12T05:36:11.701Z,99959.66
2022-09-12T05:38:39.410Z,99964.66
2022-09-12T05:41:24.181Z,99964.47
2022-09-12T05:43:53.921Z,99965.09
2022-09-12T05:46:22.746Z,99970.97
2022-09-12T05:48:55.103Z,99971.69
2022-09-12T05:51:25.588Z,99966.25
2022-09-12T05:53:55.156Z,99968.78
2022-09-12T05:56:24.768Z,99970.38
2022-09-12T05:58:59.351Z,99978.03
2022-09-12T06:01:27.825Z,99977.81
2022-09-12T06:03:57.802Z,99973.16
2022-09-12T06:06:25.757Z,99976.41
2022-09-12T06:08:55.061Z,99982.25
2022-09-12T06:11:23.495Z,99974.25
2022-09-12T06:13:51.167Z,99975.84
2022-09-12T06:16:20.510Z,99982.59
2022-09-12T06:18:49.419Z,99981.47
2022-09-12T06:21:17.045Z,99979.50
2022-09-12T06:23:46.295Z,99980.19
2022-09-12T06:26:13.949Z,99983.41
2022-09-12T06:28:42.164Z,99983.09
2022-09-12T06:31:14.941Z,99983.56
2022-09-12T06:33:44.215Z,99980.47
2022-09-12T06:36:16.285Z,99980.91
2022-09-12T06:38:44.189Z,99981.66
2022-09-12T06:41:12.503Z,99984.44
2022-09-12T06:43:40.681Z,99982.63
2022-09-12T06:46:09.164Z,99989.53
2022-09-12T06:48:41.534Z,99987.66
2022-09-12T06:51:13.967Z,99987.44
2022-09-12T06:53:42.734Z,99988.16
2022-09-12T06:56:14.875Z,99987.97
2022-09-12T06:58:42.826Z,99991.28
2022-09-12T07:01:12.636Z,99988.47
2022-09-12T07:03:40.249Z,99993.50
2022-09-12T07:06:14.614Z,99996.81
2022-09-12T07:08:42.167Z,99996.50
2022-09-12T07:11:12.595Z,99998.06
2022-09-12T07:13:40.954Z,99998.72
2022-09-12T07:16:08.625Z,100009.16
2022-09-12T07:18:38.103Z,100017.81
2022-09-12T07:21:07.634Z,100004.75
2022-09-12T07:23:34.853Z,100015.06
2022-09-12T07:26:02.242Z,100005.22
2022-09-12T07:28:31.462Z,100010.25
2022-09-12T07:31:02.279Z,100009.34
2022-09-12T07:33:30.325Z,100012.69
2022-09-12T07:36:01.895Z,100012.44
2022-09-12T07:38:28.954Z,100009.81
2022-09-12T07:40:55.943Z,100014.94
2022-09-12T07:43:23.579Z,100019.19
2022-09-12T07:45:56.000Z,100024.34
2022-09-12T07:48:23.326Z,100015.38
2022-09-12T07:51:01.434Z,100021.91
2022-09-12T07:53:34.136Z,100027.03
2022-09-12T07:56:03.327Z,100034.75
2022-09-12T07:58:31.346Z,100033.91
2022-09-12T08:01:06.039Z,100036.13
2022-09-12T08:03:33.314Z,100034.84
2022-09-12T08:06:08.253Z,100030.56
2022-09-12T08:08:35.394Z,100028.41
2022-09-12T08:11:06.085Z,100026.47
2022-09-12T08:13:35.196Z,100030.34
2022-09-12T08:16:08.326Z,100032.28
2022-09-12T08:18:36.495Z,100041.28
2022-09-12T08:21:08.334Z,100038.59
2022-09-12T08:23:35.264Z,100034.31
2022-09-12T08:26:06.147Z,100039.44
2022-09-12T08:28:35.564Z,100042.47
2022-09-12T08:31:07.721Z,100048.47
2022-09-12T08:33:35.128Z,100036.81
2022-09-12T08:36:10.382Z,100043.19
2022-09-12T08:38:39.243Z,100048.44
2022-09-12T08:41:06.343Z,100043.41
2022-09-12T08:43:45.028Z,100041.50
2022-09-12T08:46:23.329Z,100042.28
2022-09-12T08:48:50.424Z,100042.03
2022-09-12T08:51:19.507Z,100037.84
2022-09-12T08:53:48.195Z,100045.31
2022-09-12T08:56:15.408Z,100039.97
2022-09-12T08:58:44.855Z,100051.56
2022-09-12T09:01:33.543Z,100049.34
2022-09-12T09:04:29.066Z,100055.88
2022-09-12T09:07:04.765Z,100046.34
2022-09-12T09:09:41.203Z,100051.66
2022-09-12T09:12:22.424Z,100026.56
2022-09-12T09:15:12.135Z,100051.91
2022-09-12T09:17:43.078Z,100047.00
2022-09-12T09:20:13.623Z,100049.59
2022-09-12T09:22:46.025Z,100050.69
2022-09-12T09:25:43.915Z,100054.09
2022-09-12T09:28:18.605Z,100051.47
2022-09-12T09:30:46.646Z,100057.66
2022-09-12T09:33:29.054Z,100058.09
2022-09-12T09:36:22.636Z,100056.72
2022-09-12T09:38:54.315Z,100058.97
2022-09-12T09:42:02.024Z,100053.28
2022-09-12T09:44:29.984Z,100055.38
2022-09-12T09:46:59.443Z,100048.97
2022-09-12T09:49:31.984Z,100057.28
2022-09-12T09:52:02.594Z,100045.69
2022-09-12T09:54:50.751Z,100052.44
2022-09-12T09:57:36.443Z,100039.97
2022-09-12T10:00:25.024Z,100058.69
2022-09-12T10:03:13.756Z,100056.06
2022-09-12T10:06:33.275Z,100049.44
2022-09-12T10:09:17.967Z,100051.53
2022-09-12T10:11:46.884Z,100052.47
2022-09-12T10:14:38.063Z,100059.38
2022-09-12T10:17:33.900Z,100055.38
2022-09-12T10:20:20.468Z,100054.78
2022-09-12T10:22:48.884Z,100047.88
2022-09-12T10:25:16.904Z,100046.34
2022-09-12T10:27:43.905Z,100050.88
2022-09-12T10:30:18.805Z,100052.47
2022-09-12T10:32:50.799Z,100044.25
2022-09-12T10:35:33.495Z,100053.00
2022-09-12T10:38:03.941Z,100042.88
2022-09-12T10:40:35.524Z,100041.31
2022-09-12T10:43:03.217Z,100040.75
2022-09-12T10:45:32.775Z,100040.72
2022-09-12T10:48:07.372Z,100040.81
2022-09-12T10:50:42.925Z,100039.81
2022-09-12T10:53:21.693Z,100040.69
2022-09-12T10:56:10.606Z,100034.63
2022-09-12T10:58:59.283Z,100045.16
2022-09-12T11:01:32.526Z,100040.81
2022-09-12T11:04:21.344Z,100040.22
2022-09-12T11:07:25.800Z,100038.97
2022-09-12T11:10:33.148Z,100048.31
2022-09-12T11:13:34.174Z,100046.59
2022-09-12T11:16:11.124Z,100049.06
2022-09-12T11:18:48.823Z,100048.75
2022-09-12T11:21:34.535Z,100051.91
2022-09-12T11:24:26.145Z,100051.19
2022-09-12T11:27:13.344Z,100041.75
2022-09-12T11:29:52.519Z,100040.91
2022-09-12T11:33:10.664Z,100038.28
2022-09-12T11:35:54.999Z,100049.19
2022-09-12T11:38:33.554Z,100050.91
2022-09-12T11:41:15.565Z,100045.38
2022-09-12T11:44:02.691Z,100048.63
2022-09-12T11:46:39.585Z,100046.72
2022-09-12T11:49:17.547Z,100038.91
2022-09-12T11:51:47.604Z,100055.13
2022-09-12T11:54:30.025Z,100053.28
2022-09-12T11:57:22.755Z,100049.78
2022-09-12T11:59:53.214Z,100061.59
2022-09-12T12:02:29.147Z,100048.13
2022-09-12T12:05:37.855Z,100036.81
2022-09-12T12:08:06.331Z,100042.78
2022-09-12T12:10:37.444Z,100055.69
2022-09-12T12:13:22.365Z,100061.59
2022-09-12T12:15:52.749Z,100057.25
2022-09-12T12:18:23.902Z,100060.41
2022-09-12T12:20:51.926Z,100052.00
2022-09-12T12:23:34.535Z,100054.53
2022-09-12T12:26:04.718Z,100056.66
2022-09-12T12:28:50.744Z,100053.75
2022-09-12T12:31:18.371Z,100045.47
2022-09-12T12:33:45.362Z,100056.25
2022-09-12T12:36:38.703Z,100060.44
2022-09-12T12:39:36.837Z,100065.16
2022-09-12T12:42:04.084Z,100061.94
2022-09-12T12:44:50.275Z,100067.06
2022-09-12T12:47:23.374Z,100056.56
2022-09-12T12:49:52.937Z,100060.03
2022-09-12T12:52:20.564Z,100053.88
2022-09-12T12:54:47.816Z,100045.25
2022-09-12T12:57:20.529Z,100047.66
2022-09-12T12:59:48.605Z,100044.97
2022-09-12T13:02:31.889Z,100059.09
2022-09-12T13:05:01.196Z,100053.19
2022-09-12T13:07:31.725Z,100050.13
2022-09-12T13:09:59.849Z,100061.31
2022-09-12T13:12:38.614Z,100056.03
2022-09-12T13:15:42.225Z,100050.59
2022-09-12T13:18:24.144Z,100051.06
2022-09-12T13:21:16.426Z,100052.53
2022-09-12T13:23:43.525Z,100048.97
2022-09-12T13:26:14.106Z,100050.16
2022-09-12T13:28:41.164Z,100044.16
2022-09-12T13:31:26.600Z,100052.41
2022-09-12T13:34:02.975Z,100046.28
2022-09-12T13:36:54.935Z,100041.56
2022-09-12T13:39:28.355Z,100044.84
2022-09-12T13:42:01.365Z,100045.34
2022-09-12T13:44:28.699Z,100043.03
2022-09-12T13:46:59.474Z,100040.56
2022-09-12T13:49:36.265Z,100043.22
2022-09-12T13:52:04.380Z,100046.53
2022-09-12T13:54:31.974Z,100045.78
2022-09-12T13:56:59.893Z,100045.00
2022-09-12T13:59:26.801Z,100036.31
2022-09-12T14:01:53.839Z,100041.56
2022-09-12T14:04:42.094Z,100039.03
2022-09-12T14:07:19.715Z,100038.88
2022-09-12T14:09:54.164Z,100042.09
2022-09-12T14:12:43.534Z,100045.41
2022-09-12T14:15:27.680Z,100035.81
2022-09-12T14:18:01.500Z,100045.53
2022-09-12T14:20:33.585Z,100042.19
2022-09-12T14:23:04.804Z,100045.50
2022-09-12T14:25:41.389Z,100045.78
2022-09-12T14:28:13.886Z,100037.34
2022-09-12T14:30:41.233Z,100041.75
2022-09-12T14:33:11.297Z,100049.81
2022-09-12T14:35:43.800Z,100041.91
2022-09-12T14:38:17.090Z,100039.22
2022-09-12T14:40:49.949Z,100038.28
2022-09-12T14:43:27.257Z,100033.84
2022-09-12T14:45:59.933Z,100040.88
2022-09-12T14:48:36.472Z,100033.09
2022-09-12T14:51:04.205Z,100036.34
2022-09-12T14:53:32.984Z,100037.88
2022-09-12T14:56:11.191Z,100029.03
2022-09-12T14:58:39.426Z,100039.28
2022-09-12T15:01:06.407Z,100045.03
2022-09-12T15:03:54.025Z,100056.25
2022-09-12T15:06:28.410Z,100049.97
2022-09-12T15:08:57.463Z,100043.25
2022-09-12T15:11:24.854Z,100053.94
2022-09-12T15:13:52.114Z,100050.31
2022-09-12T15:16:19.371Z,100050.41
2022-09-12T15:18:46.480Z,100050.06
2022-09-12T15:21:17.920Z,100051.00
2022-09-12T15:23:49.935Z,100051.75
2022-09-12T15:26:20.075Z,100058.31
2022-09-12T15:28:47.274Z,100047.31
2022-09-12T15:31:22.835Z,100053.72
2022-09-12T15:33:50.216Z,100054.09
2022-09-12T15:36:20.211Z,100051.97
2022-09-12T15:38:48.154Z,100058.44
2022-09-12T15:41:27.297Z,100055.16
2022-09-12T15:43:54.563Z,100055.50
2022-09-12T15:46:21.987Z,100058.34
2022-09-12T15:48:50.237Z,100058.59
2022-09-12T15:51:19.602Z,100056.06
2022-09-12T15:53:48.079Z,100052.56
2022-09-12T15:56:16.930Z,100052.56
2022-09-12T15:58:57.795Z,100061.47
2022-09-12T16:01:26.184Z,100053.59
2022-09-12T16:03:53.333Z,100051.81
2022-09-12T16:06:20.608Z,100059.00
2022-09-12T16:08:47.717Z,100057.47
2022-09-12T16:11:23.448Z,100048.06
2022-09-12T16:13:53.183Z,100045.47
2022-09-12T16:16:20.567Z,100057.84
2022-09-12T16:18:47.871Z,100057.13
2022-09-12T16:21:15.863Z,100054.66
2022-09-12T16:23:48.473Z,100053.00
2022-09-12T16:26:15.898Z,100052.16
2022-09-12T16:28:43.358Z,100048.84
2022-09-12T16:31:13.191Z,100051.69
2022-09-12T16:33:40.629Z,100046.66
2022-09-12T16:36:09.725Z,100040.75
2022-09-12T16:38:55.124Z,100047.03
2022-09-12T16:41:25.188Z,100033.97
2022-09-12T16:43:52.625Z,100049.00
2022-09-12T16:46:28.805Z,100042.22
2022-09-12T16:48:57.948Z,100038.91
2022-09-12T16:51:33.475Z,100039.03
2022-09-12T16:54:00.966Z,100026.13
2022-09-12T16:56:28.148Z,100038.41
2022-09-12T16:58:55.662Z,100028.00
2022-09-12T17:01:24.598Z,100031.66
2022-09-12T17:03:56.738Z,100029.16
2022-09-12T17:06:25.456Z,100023.16
2022-09-12T17:08:53.839Z,100024.13
2022-09-12T17:11:25.604Z,100021.69
2022-09-12T17:14:05.818Z,100025.28
2022-09-12T17:16:35.679Z,100023.66
2022-09-12T17:19:02.899Z,100023.03
2022-09-12T17:21:29.784Z,100030.16
2022-09-12T17:23:57.136Z,100027.78
2022-09-12T17:26:24.020Z,100035.63
2022-09-12T17:28:51.001Z,100033.09
2022-09-12T17:31:18.150Z,100032.19
2022-09-12T17:33:45.333Z,100035.81
2022-09-12T17:36:17.985Z,100034.91
2022-09-12T17:38:45.870Z,100022.56
2022-09-12T17:41:18.686Z,100030.41
2022-09-12T17:43:47.475Z,100032.38
2022-09-12T17:46:14.731Z,100037.56
2022-09-12T17:48:41.866Z,100032.47
2022-09-12T17:51:13.815Z,100033.56
2022-09-12T17:53:41.048Z,100039.94
2022-09-12T17:56:08.404Z,100040.22
2022-09-12T17:58:35.886Z,100034.44
2022-09-12T18:01:28.989Z,100040.06
2022-09-12T18:03:57.374Z,100032.47
2022-09-12T18:06:24.651Z,100029.25
2022-09-12T18:08:51.969Z,100030.34
2022-09-12T18:11:19.284Z,100034.91
2022-09-12T18:13:47.608Z,100041.13
2022-09-12T18:16:14.794Z,100036.97
2022-09-12T18:18:41.931Z,100030.13
2022-09-12T18:21:11.056Z,100030.28
2022-09-12T18:23:38.568Z,100030.38
2022-09-12T18:26:07.874Z,100033.09
2022-09-12T18:28:37.120Z,100027.97
2022-09-12T18:31:04.785Z,100028.91
2022-09-12T18:33:32.258Z,100036.78
2022-09-12T18:36:04.689Z,100031.69
2022-09-12T18:38:32.544Z,100032.59
2022-09-12T18:41:04.482Z,100024.91
2022-09-12T18:43:31.887Z,100025.75
2022-09-12T18:46:16.693Z,100019.72
2022-09-12T18:48:45.484Z,100031.97
2022-09-12T18:51:17.999Z,100026.84
2022-09-12T18:53:52.106Z,100043.41
2022-09-12T18:56:19.738Z,100046.09
2022-09-12T18:58:50.767Z,100041.81
2022-09-12T19:01:26.439Z,100040.16
2022-09-12T19:03:54.940Z,100043.66
2022-09-12T19:06:22.956Z,100028.97
2022-09-12T19:08:51.340Z,100026.38
2022-09-12T19:11:18.934Z,100021.16
2022-09-12T19:13:47.760Z,100015.97
2022-09-12T19:16:17.914Z,100016.00
2022-09-12T19:18:48.136Z,100022.25
2022-09-12T19:21:24.571Z,100014.53
2022-09-12T19:23:52.490Z,100012.94
2022-09-12T19:26:20.606Z,100016.53
2022-09-12T19:28:47.831Z,100016.63
2022-09-12T19:31:19.156Z,100014.09
2022-09-12T19:33:47.654Z,100002.84
2022-09-12T19:36:41.286Z,100016.84
2022-09-12T19:39:08.907Z,100003.84
2022-09-12T19:41:36.877Z,100009.09
2022-09-12T19:44:05.198Z,100005.56
2022-09-12T19:46:33.025Z,100005.56
2022-09-12T19:49:00.347Z,99999.50
2022-09-12T19:51:27.696Z,100001.25
2022-09-12T19:53:55.772Z,99998.66
2022-09-12T19:56:23.513Z,100006.53
2022-09-12T19:58:55.722Z,100008.34
2022-09-12T20:01:30.586Z,100008.41
2022-09-12T20:03:59.145Z,100003.22
2022-09-12T20:06:27.630Z,100001.47
2022-09-12T20:08:55.826Z,99992.81
2022-09-12T20:11:23.928Z,99982.44
2022-09-12T20:13:51.811Z,99983.38
2022-09-12T20:16:22.600Z,99980.81
2022-09-12T20:18:56.143Z,99986.03
2022-09-12T20:21:26.292Z,99980.88
2022-09-12T20:23:53.348Z,99974.00
2022-09-12T20:26:20.638Z,99973.19
2022-09-12T20:28:47.964Z,99977.53
2022-09-12T20:31:16.515Z,99976.66
2022-09-12T20:33:47.561Z,99971.50
2022-09-12T20:36:19.414Z,99970.72
2022-09-12T20:38:51.874Z,99976.81
2022-09-12T20:41:22.268Z,99980.25
2022-09-12T20:43:51.261Z,99982.78
2022-09-12T20:46:21.909Z,99977.59
2022-09-12T20:48:50.707Z,99974.16
2022-09-12T20:51:18.339Z,99975.06
2022-09-12T20:53:45.619Z,99969.88
2022-09-12T20:56:12.774Z,99963.81
2022-09-12T20:58:43.800Z,99962.97
2022-09-12T21:01:12.641Z,99962.16
2022-09-12T21:03:40.725Z,99963.91
2022-09-12T21:06:09.169Z,99963.03
2022-09-12T21:08:37.196Z,99962.19
2022-09-12T21:11:05.282Z,99964.00
2022-09-12T21:13:32.191Z,99961.47
2022-09-12T21:16:04.363Z,99950.19
2022-09-12T21:18:32.743Z,99951.09
2022-09-12T21:20:59.762Z,99956.28
2022-09-12T21:23:27.689Z,99951.97
2022-09-12T21:25:54.924Z,99954.63
2022-09-12T21:28:22.239Z,99946.91
2022-09-12T21:30:49.929Z,99947.81
2022-09-12T21:33:18.329Z,99939.19
2022-09-12T21:35:46.045Z,99936.63
2022-09-12T21:38:13.558Z,99940.09
2022-09-12T21:40:40.549Z,99936.69
2022-09-12T21:43:12.329Z,99923.69
2022-09-12T21:45:40.044Z,99921.94
2022-09-12T21:48:07.116Z,99928.00
2022-09-12T21:50:34.310Z,99917.72
2022-09-12T21:53:01.445Z,99917.72
2022-09-12T21:55:28.757Z,99918.59
2022-09-12T21:57:55.899Z,99918.63
2022-09-12T22:00:23.395Z,99917.78
2022-09-12T22:02:50.550Z,99918.69
2022-09-12T22:05:21.417Z,99916.09
2022-09-12T22:07:48.475Z,99923.06
2022-09-12T22:10:15.557Z,99923.06
2022-09-12T22:12:46.229Z,99930.88
2022-09-12T22:15:39.025Z,99933.47
2022-09-12T22:18:01.594Z,99933.47
2022-09-12T22:20:28.677Z,99926.50
2022-09-12T22:23:14.171Z,99931.69
2022-09-12T22:25:55.356Z,99936.91
2022-09-12T22:28:22.776Z,99936.88
2022-09-12T22:30:49.869Z,99936.91
2022-09-12T22:33:16.995Z,99933.44
2022-09-12T22:35:44.280Z,99925.69
2022-09-12T22:38:11.337Z,99917.91
2022-09-12T22:40:38.473Z,99918.81
2022-09-12T22:43:05.803Z,99919.69
2022-09-12T22:45:32.733Z,99916.22
2022-09-12T22:48:00.975Z,99917.06
2022-09-12T22:50:28.715Z,99915.38
2022-09-12T22:52:56.228Z,99921.44
2022-09-12T22:55:23.594Z,99913.69
2022-09-12T22:57:50.601Z,99917.16
2022-09-12T23:00:19.433Z,99907.63
2022-09-12T23:02:46.953Z,99902.47
2022-09-12T23:05:13.970Z,99905.06
2022-09-12T23:07:40.977Z,99898.16
2022-09-12T23:10:08.399Z,99902.53
2022-09-12T23:12:35.359Z,99899.94
2022-09-12T23:15:02.362Z,99902.56
2022-09-12T23:17:29.362Z,99894.78
2022-09-12T23:19:56.472Z,99891.34
2022-09-12T23:22:23.414Z,99901.78
2022-09-12T23:24:50.451Z,99891.41
2022-09-12T23:27:17.537Z,99893.16
2022-09-12T23:29:44.817Z,99888.81
2022-09-12T23:32:12.309Z,99887.09
2022-09-12T23:34:39.400Z,99872.38
2022-09-12T23:37:07.004Z,99879.31
2022-09-12T23:39:34.247Z,99880.16
2022-09-12T23:42:01.194Z,99874.09
2022-09-12T23:44:28.252Z,99874.09
2022-09-12T23:46:55.193Z,99869.78
2022-09-12T23:49:22.321Z,99868.94
2022-09-12T23:51:49.276Z,99868.94
2022-09-12T23:54:16.492Z,99866.38
2022-09-12T23:56:43.513Z,99864.63
2022-09-12T23:59:10.538Z,99863.78
